Time;durP1;ratioP1;P1;durP2;ratioP2;P2;SDS_P1;SDS_P2;PMS_P1;PMS_P2;Temp;Humidity;BMP_temperature;BMP_pressure;BME280_temperature;BME280_humidity;BME280_pressure;Samples;Min_cycle;Max_cycle;Signal;HPM_P1;HPM_P2
2022/04/14 00:02:28;;;;;;;21.37;8.00;;;7.30;1.00;;;;;;4415317;28;656253;-67
2022/04/14 00:05:17;;;;;;;22.63;8.37;;;7.20;1.00;;;;;;4381093;28;655527;-67
2022/04/14 00:08:05;;;;;;;19.13;7.87;;;7.30;1.00;;;;;;4408259;28;656105;-67
2022/04/14 00:10:52;;;;;;;22.87;7.83;;;7.20;1.00;;;;;;4382546;28;656657;-67
2022/04/14 00:13:39;;;;;;;15.33;7.10;;;7.10;1.00;;;;;;4409917;28;655334;-67
2022/04/14 00:16:27;;;;;;;21.17;8.80;;;7.20;1.00;;;;;;4404117;28;656056;-67
2022/04/14 00:19:14;;;;;;;22.37;9.77;;;7.20;1.00;;;;;;4420117;28;655275;-67
2022/04/14 00:22:03;;;;;;;29.43;12.03;;;7.10;1.00;;;;;;4399213;28;655344;-67
2022/04/14 00:24:50;;;;;;;33.40;13.65;;;7.10;1.00;;;;;;4402659;28;657457;-66
2022/04/14 00:27:38;;;;;;;35.30;14.90;;;7.00;1.00;;;;;;4414985;28;657806;-67
2022/04/14 00:30:25;;;;;;;24.97;11.10;;;7.10;1.00;;;;;;4403876;28;657558;-67
2022/04/14 00:33:13;;;;;;;31.47;11.53;;;7.10;1.00;;;;;;4417309;28;657354;-66
2022/04/14 00:36:00;;;;;;;25.65;11.18;;;7.10;1.00;;;;;;4408218;28;656567;-67
2022/04/14 00:38:49;;;;;;;44.00;15.97;;;7.10;1.00;;;;;;4421100;28;658256;-67
2022/04/14 00:41:37;;;;;;;30.97;13.83;;;7.00;1.00;;;;;;4401335;28;657052;-66
2022/04/14 00:44:24;;;;;;;31.60;9.80;;;7.00;1.00;;;;;;4417288;28;656718;-67
2022/04/14 00:47:12;;;;;;;27.17;10.70;;;7.00;1.00;;;;;;4400170;28;655823;-67
2022/04/14 00:49:59;;;;;;;24.33;10.30;;;7.10;1.00;;;;;;4419208;28;656484;-67
2022/04/14 00:52:47;;;;;;;24.80;9.40;;;7.10;1.00;;;;;;4405336;28;656704;-67
2022/04/14 00:55:36;;;;;;;17.80;8.43;;;7.10;1.00;;;;;;4424378;28;655712;-66
2022/04/14 00:58:23;;;;;;;19.08;7.93;;;7.00;1.00;;;;;;4402976;28;657689;-67
2022/04/14 01:01:12;;;;;;;19.10;8.23;;;7.00;1.00;;;;;;4405082;28;655453;-67
2022/04/14 01:03:59;;;;;;;23.30;7.53;;;6.90;1.00;;;;;;4424161;28;656072;-67
2022/04/14 01:06:47;;;;;;;20.03;7.90;;;6.90;1.00;;;;;;4406456;28;655493;-67
2022/04/14 01:09:34;;;;;;;20.67;8.10;;;6.90;1.00;;;;;;4422688;28;655352;-67
2022/04/14 01:12:23;;;;;;;21.87;8.03;;;6.90;1.00;;;;;;4406362;28;655884;-66
2022/04/14 01:15:12;;;;;;;21.07;8.40;;;6.90;1.00;;;;;;4405979;28;655258;-67
2022/04/14 01:18:00;;;;;;;21.80;8.67;;;6.80;1.00;;;;;;4423897;28;655963;-67
2022/04/14 01:20:47;;;;;;;17.90;8.10;;;6.80;1.00;;;;;;4402445;28;656774;-67
2022/04/14 01:23:41;;;;;;;24.70;8.17;;;6.80;1.00;;;;;;4426069;28;655699;-67
2022/04/14 01:26:28;;;;;;;21.83;8.60;;;6.80;1.00;;;;;;4399242;28;656782;-67
2022/04/14 01:29:22;;;;;;;20.00;8.33;;;6.90;1.00;;;;;;4404193;28;655357;-66
2022/04/14 01:32:10;;;;;;;19.23;7.87;;;6.90;1.00;;;;;;4417510;28;655067;-67
2022/04/14 01:34:58;;;;;;;19.70;8.20;;;7.00;1.00;;;;;;4420427;28;656640;-67
2022/04/14 01:37:45;;;;;;;22.13;8.93;;;7.00;1.00;;;;;;4410036;28;655854;-67
2022/04/14 01:40:34;;;;;;;21.93;9.17;;;6.90;1.00;;;;;;4425525;28;656929;-66
2022/04/14 01:43:21;;;;;;;17.35;8.80;;;6.70;1.00;;;;;;4403719;28;655823;-67
2022/04/14 01:46:09;;;;;;;24.07;8.73;;;6.60;1.00;;;;;;4423401;28;655775;-66
2022/04/14 01:48:58;;;;;;;26.47;8.77;;;6.60;1.00;;;;;;4405315;28;655457;-67
2022/04/14 01:51:48;;;;;;;22.90;9.02;;;6.60;1.00;;;;;;4405110;28;656683;-66
2022/04/14 01:54:35;;;;;;;21.57;9.07;;;6.40;1.00;;;;;;4411259;28;655683;-67
2022/04/14 01:57:24;;;;;;;24.43;9.57;;;6.50;1.00;;;;;;4418378;28;657103;-67
2022/04/14 02:00:14;;;;;;;19.47;7.90;;;6.50;1.00;;;;;;4395181;28;655953;-67
2022/04/14 02:03:01;;;;;;;19.40;8.68;;;6.30;1.00;;;;;;4405467;28;655799;-67
2022/04/14 02:05:49;;;;;;;19.33;7.70;;;6.20;1.00;;;;;;4420682;28;655896;-66
2022/04/14 02:08:36;;;;;;;20.80;8.80;;;6.10;1.00;;;;;;4399261;28;656359;-67
2022/04/14 02:11:24;;;;;;;21.30;9.13;;;6.00;1.00;;;;;;4421862;28;655826;-66
2022/04/14 02:14:12;;;;;;;20.50;8.30;;;6.10;1.00;;;;;;4402405;28;656054;-67
2022/04/14 02:17:00;;;;;;;22.43;8.37;;;6.10;1.00;;;;;;4422840;28;655531;-66
2022/04/14 02:19:48;;;;;;;18.97;8.17;;;6.00;1.00;;;;;;4388426;28;657435;-66
2022/04/14 02:22:39;;;;;;;19.57;8.43;;;5.90;1.00;;;;;;4402986;28;655444;-66
2022/04/14 02:25:26;;;;;;;18.80;8.10;;;5.80;1.00;;;;;;4392203;28;655758;-67
2022/04/14 02:28:14;;;;;;;14.10;6.90;;;5.70;1.00;;;;;;4407211;28;655618;-67
2022/04/14 02:31:03;;;;;;;21.43;7.70;;;5.60;1.00;;;;;;4391399;28;655458;-66
2022/04/14 02:33:50;;;;;;;17.87;8.03;;;5.50;1.00;;;;;;4407540;28;655226;-66
2022/04/14 02:36:38;;;;;;;15.43;7.30;;;5.40;1.00;;;;;;4416540;28;656460;-67
2022/04/14 02:39:25;;;;;;;19.50;7.47;;;5.20;99.90;;;;;;4411762;28;655254;-67
2022/04/14 02:42:13;;;;;;;21.07;7.77;;;5.20;99.90;;;;;;4424249;28;658508;-66
2022/04/14 02:45:00;;;;;;;18.60;7.47;;;5.10;99.90;;;;;;4413828;28;656716;-67
2022/04/14 02:47:49;;;;;;;18.07;7.43;;;5.00;99.90;;;;;;4422855;28;657725;-67
2022/04/14 02:50:38;;;;;;;17.60;7.00;;;4.90;99.90;;;;;;4398851;28;656800;-66
2022/04/14 02:53:25;;;;;;;22.30;8.60;;;4.70;99.90;;;;;;4403131;28;656133;-67
2022/04/14 02:56:13;;;;;;;17.73;7.50;;;4.70;99.90;;;;;;4420844;28;656892;-67
2022/04/14 02:59:00;;;;;;;21.13;8.27;;;4.70;99.90;;;;;;4407612;28;657072;-67
2022/04/14 03:01:48;;;;;;;21.10;8.40;;;4.60;99.90;;;;;;4428539;28;658385;-66
2022/04/14 03:04:37;;;;;;;22.87;7.30;;;4.50;94.60;;;;;;4412583;28;657419;-66
2022/04/14 03:07:24;;;;;;;16.73;7.37;;;4.40;99.90;;;;;;4421781;28;656476;-66
2022/04/14 03:10:12;;;;;;;17.60;8.00;;;4.20;99.90;;;;;;4396198;28;656450;-67
2022/04/14 03:12:59;;;;;;;18.43;7.97;;;4.20;99.90;;;;;;4421486;28;656234;-66
2022/04/14 03:15:48;;;;;;;20.17;7.67;;;4.20;99.90;;;;;;4401681;28;656491;-67
2022/04/14 03:18:36;;;;;;;14.77;6.53;;;4.20;99.90;;;;;;4403961;28;656917;-66
2022/04/14 03:21:25;;;;;;;16.27;6.97;;;4.20;99.90;;;;;;4424602;28;657308;-67
2022/04/14 03:24:12;;;;;;;15.83;6.90;;;4.10;99.90;;;;;;4392386;28;658160;-67
2022/04/14 03:26:59;;;;;;;19.10;7.50;;;4.00;1.00;;;;;;4422967;28;657087;-66
2022/04/14 03:29:46;;;;;;;15.40;6.70;;;3.90;1.00;;;;;;4401985;28;655494;-67
2022/04/14 03:32:39;;;;;;;13.87;6.53;;;3.90;1.00;;;;;;4422914;28;656178;-66
2022/04/14 03:35:26;;;;;;;14.17;6.50;;;3.90;1.00;;;;;;4403961;28;655646;-66
2022/04/14 03:38:15;;;;;;;14.10;6.83;;;3.80;1.00;;;;;;4419980;28;656735;-66
2022/04/14 03:41:04;;;;;;;17.10;7.00;;;3.80;10.20;;;;;;4398260;28;656356;-67
2022/04/14 03:43:51;;;;;;;16.33;6.67;;;3.70;99.90;;;;;;4399908;28;656186;-66
2022/04/14 03:46:39;;;;;;;19.00;7.10;;;3.70;66.50;;;;;;4420681;28;656835;-67
2022/04/14 03:49:26;;;;;;;17.43;6.90;;;3.70;99.90;;;;;;4396079;28;657166;-66
2022/04/14 03:52:13;;;;;;;20.90;8.83;;;3.50;99.90;;;;;;4425690;28;657301;-66
2022/04/14 03:55:02;;;;;;;17.70;6.50;;;3.60;17.90;;;;;;4398598;28;656614;-67
2022/04/14 03:57:49;;;;;;;17.20;7.50;;;3.50;99.90;;;;;;4419820;28;656380;-66
2022/04/14 04:00:37;;;;;;;17.10;6.90;;;3.60;99.90;;;;;;4401449;28;657589;-67
2022/04/14 04:03:24;;;;;;;20.13;6.77;;;3.60;99.90;;;;;;4420341;28;657559;-66
2022/04/14 04:06:11;;;;;;;16.40;6.57;;;3.50;1.00;;;;;;4404746;28;657153;-66
2022/04/14 04:08:59;;;;;;;17.20;6.87;;;3.50;99.90;;;;;;4420993;28;655738;-66
2022/04/14 04:11:47;;;;;;;19.30;7.47;;;3.50;99.90;;;;;;4402148;28;657355;-66
2022/04/14 04:14:35;;;;;;;19.83;8.10;;;3.50;1.00;;;;;;4419336;28;656195;-66
2022/04/14 04:17:23;;;;;;;18.07;7.80;;;3.50;1.00;;;;;;4427076;28;656335;-66
2022/04/14 04:20:11;;;;;;;15.33;7.00;;;3.50;99.90;;;;;;4411092;28;655475;-66
2022/04/14 04:22:58;;;;;;;15.43;7.20;;;3.80;99.90;;;;;;4425016;28;656936;-66
2022/04/14 04:25:46;;;;;;;18.37;6.47;;;3.70;1.00;;;;;;4401576;28;658237;-66
2022/04/14 04:28:34;;;;;;;16.60;7.10;;;3.80;99.90;;;;;;4426242;28;656730;-67
2022/04/14 04:31:22;;;;;;;15.13;6.80;;;3.80;99.90;;;;;;4395334;28;658434;-66
2022/04/14 04:34:09;;;;;;;15.43;6.43;;;3.80;1.00;;;;;;4416409;28;658573;-66
2022/04/14 04:36:57;;;;;;;13.77;6.50;;;3.80;99.90;;;;;;4396642;28;657447;-66
2022/04/14 04:39:44;;;;;;;15.30;7.00;;;3.80;1.00;;;;;;4417375;28;657421;-67
2022/04/14 04:42:31;;;;;;;18.30;5.90;;;4.00;1.00;;;;;;4402146;28;656542;-66
2022/04/14 04:45:20;;;;;;;19.63;6.83;;;4.10;99.90;;;;;;4419436;28;657016;-67
2022/04/14 04:48:07;;;;;;;17.63;7.27;;;4.20;1.00;;;;;;4395569;28;657813;-66
2022/04/14 04:50:55;;;;;;;17.47;7.07;;;4.30;99.90;;;;;;4418159;28;656795;-67
2022/04/14 04:53:43;;;;;;;15.97;7.13;;;4.50;99.90;;;;;;4419868;28;658603;-66
2022/04/14 04:56:30;;;;;;;14.60;6.80;;;4.60;99.90;;;;;;4413992;28;658383;-67
2022/04/14 04:59:18;;;;;;;15.63;7.17;;;4.80;99.90;;;;;;4411292;28;659015;-67
2022/04/14 05:02:07;;;;;;;19.87;7.00;;;4.80;99.90;;;;;;4396587;28;658558;-67
2022/04/14 05:04:54;;;;;;;19.67;7.27;;;5.00;1.00;;;;;;4406867;28;657965;-67
2022/04/14 05:07:41;;;;;;;14.27;7.60;;;5.10;99.90;;;;;;4378363;28;656548;-66
2022/04/14 05:10:29;;;;;;;18.30;7.87;;;5.30;99.90;;;;;;4405099;28;659629;-67
2022/04/14 05:13:16;;;;;;;16.17;7.50;;;5.40;1.00;;;;;;4390151;28;657390;-67
2022/04/14 05:16:04;;;;;;;14.10;7.37;;;5.50;1.00;;;;;;4410726;28;656519;-67
2022/04/14 05:18:53;;;;;;;18.20;7.57;;;5.70;1.00;;;;;;4400219;28;656933;-66
2022/04/14 05:21:40;;;;;;;19.73;7.53;;;5.90;1.00;;;;;;4403005;28;657014;-67
2022/04/14 05:24:28;;;;;;;17.70;7.57;;;6.00;1.00;;;;;;4420492;28;657523;-67
2022/04/14 05:27:15;;;;;;;18.90;8.27;;;6.20;1.00;;;;;;4410700;28;657386;-67
2022/04/14 05:30:03;;;;;;;15.67;7.93;;;6.40;1.00;;;;;;4416042;28;658112;-67
2022/04/14 05:32:50;;;;;;;16.97;8.37;;;6.60;1.00;;;;;;4400364;28;656802;-67
2022/04/14 05:35:39;;;;;;;18.00;8.97;;;6.90;1.00;;;;;;4419954;28;657790;-67
2022/04/14 05:38:27;;;;;;;17.57;8.67;;;7.10;1.00;;;;;;4397214;28;656984;-67
2022/04/14 05:41:14;;;;;;;18.97;8.87;;;7.30;99.90;;;;;;4423301;28;656936;-67
2022/04/14 05:44:01;;;;;;;20.93;9.27;;;7.70;99.90;;;;;;4402625;28;657917;-67
2022/04/14 05:46:49;;;;;;;19.63;9.67;;;7.90;96.10;;;;;;4422312;28;657670;-67
2022/04/14 05:49:36;;;;;;;23.27;9.97;;;8.30;58.90;;;;;;4403791;28;657616;-67
2022/04/14 05:52:25;;;;;;;21.63;9.63;;;8.50;40.00;;;;;;4421372;28;658186;-67
2022/04/14 05:55:12;;;;;;;23.13;9.63;;;8.70;11.60;;;;;;4400964;28;658415;-67
2022/04/14 05:58:00;;;;;;;21.17;9.43;;;8.90;1.00;;;;;;4422287;28;657554;-66
2022/04/14 06:00:47;;;;;;;19.67;9.87;;;9.20;1.00;;;;;;4401688;28;657917;-66
2022/04/14 06:03:34;;;;;;;19.40;10.30;;;9.40;1.00;;;;;;4407238;28;656872;-66
2022/04/14 06:06:22;;;;;;;23.67;10.27;;;9.50;1.00;;;;;;4387365;28;657682;-67
2022/04/14 06:09:12;;;;;;;22.10;9.87;;;9.70;1.00;;;;;;4406012;28;657392;-66
2022/04/14 06:11:59;;;;;;;18.57;9.50;;;9.90;1.00;;;;;;4379524;28;656960;-67
2022/04/14 06:14:47;;;;;;;21.60;10.97;;;10.10;1.00;;;;;;4385696;28;657400;-67
2022/04/14 06:17:34;;;;;;;23.07;10.17;;;10.20;1.00;;;;;;4408730;28;660089;-67
2022/04/14 06:20:22;;;;;;;17.57;9.40;;;10.30;1.00;;;;;;4385714;28;659197;-67
2022/04/14 06:23:10;;;;;;;19.93;9.37;;;10.60;1.00;;;;;;4403981;28;657127;-67
2022/04/14 06:25:59;;;;;;;21.00;9.90;;;10.80;1.00;;;;;;4405267;28;658975;-67
2022/04/14 06:28:47;;;;;;;19.50;8.97;;;11.00;1.00;;;;;;4393865;28;658491;-67
2022/04/14 06:31:35;;;;;;;19.53;8.83;;;11.30;1.00;;;;;;4421266;28;657272;-67
2022/04/14 06:34:22;;;;;;;24.00;9.80;;;11.50;1.00;;;;;;4388849;28;658955;-67
2022/04/14 06:37:09;;;;;;;17.33;8.80;;;11.60;1.00;;;;;;4414642;28;656825;-67
2022/04/14 06:39:57;;;;;;;22.20;9.07;;;11.80;1.00;;;;;;4396850;28;660137;-67
2022/04/14 06:46:25;;;;;;;19.77;10.00;;;12.50;1.00;;;;;;4398562;28;658263;-67
2022/04/14 06:49:13;;;;;;;19.52;9.55;;;12.70;1.00;;;;;;4392267;28;659635;-67
2022/04/14 06:52:01;;;;;;;20.13;9.07;;;12.80;1.00;;;;;;4391819;28;657567;-67
2022/04/14 06:54:49;;;;;;;20.37;8.63;;;13.00;1.00;;;;;;4417369;28;657467;-67
2022/04/14 06:57:36;;;;;;;17.80;8.40;;;13.00;1.00;;;;;;4391474;28;658225;-67
2022/04/14 07:00:25;;;;;;;15.67;8.13;;;13.20;1.00;;;;;;4414935;28;658133;-67
2022/04/14 07:03:15;;;;;;;16.40;8.20;;;13.40;1.00;;;;;;4395953;28;657924;-67
2022/04/14 07:06:03;;;;;;;14.73;7.47;;;13.50;1.00;;;;;;4392654;28;659108;-67
2022/04/14 07:08:50;;;;;;;17.70;8.40;;;13.70;1.00;;;;;;4409488;28;657616;-67
2022/04/14 07:11:38;;;;;;;19.13;7.80;;;13.90;1.00;;;;;;4417372;28;658882;-67
2022/04/14 07:14:26;;;;;;;19.20;8.77;;;13.90;1.00;;;;;;4404955;28;657388;-67
2022/04/14 07:17:16;;;;;;;18.33;9.23;;;14.10;1.00;;;;;;4417305;28;658240;-67
2022/04/14 07:20:09;;;;;;;19.57;8.83;;;14.20;1.00;;;;;;4395372;28;658786;-67
2022/04/14 07:23:02;;;;;;;23.23;8.70;;;14.20;1.00;;;;;;4371658;28;658549;-67
2022/04/14 07:25:50;;;;;;;24.97;9.60;;;14.40;1.00;;;;;;4406536;28;658415;-67
2022/04/14 07:28:39;;;;;;;18.77;9.33;;;14.50;1.00;;;;;;4413873;28;658880;-67
2022/04/14 07:32:00;;;;;;;19.37;8.33;;;14.50;1.00;;;;;;4400806;28;657788;-67
2022/04/14 07:34:49;;;;;;;18.33;7.83;;;14.60;1.00;;;;;;4366529;28;658527;-67
2022/04/14 07:37:37;;;;;;;16.63;7.87;;;14.60;1.00;;;;;;4399958;28;657807;-67
2022/04/14 07:40:24;;;;;;;19.00;7.07;;;14.70;1.00;;;;;;4420121;28;657635;-67
2022/04/14 07:43:11;;;;;;;14.57;7.20;;;15.10;1.00;;;;;;4402584;28;657429;-67
2022/04/14 07:45:59;;;;;;;11.80;6.00;;;15.20;1.00;;;;;;4412091;28;657703;-67
2022/04/14 07:49:35;;;;;;;12.63;6.23;;;15.00;1.00;;;;;;4390922;28;657989;-67
2022/04/14 07:52:24;;;;;;;14.43;6.30;;;15.40;1.00;;;;;;4390962;28;658198;-67
2022/04/14 07:55:11;;;;;;;12.60;6.37;;;15.70;1.00;;;;;;4392390;28;658668;-67
2022/04/14 07:58:00;;;;;;;14.40;6.47;;;15.80;1.00;;;;;;4428801;28;657831;-67
2022/04/14 08:00:47;;;;;;;13.30;7.00;;;16.00;1.00;;;;;;4389274;28;659200;-67
2022/04/14 08:03:37;;;;;;;13.90;6.75;;;16.10;1.00;;;;;;4412393;28;658377;-67
2022/04/14 08:06:25;;;;;;;13.17;6.57;;;16.30;1.00;;;;;;4382827;28;657921;-67
2022/04/14 08:09:47;;;;;;;13.80;6.47;;;16.40;1.00;;;;;;4385632;28;658905;-67
2022/04/14 08:12:37;;;;;;;12.93;7.33;;;16.40;1.00;;;;;;4396760;28;659214;-67
2022/04/14 08:15:26;;;;;;;17.30;7.53;;;16.80;1.00;;;;;;4420500;28;657312;-67
2022/04/14 08:18:13;;;;;;;20.60;6.77;;;17.10;1.00;;;;;;4408261;28;658197;-67
2022/04/14 08:21:00;;;;;;;12.57;7.07;;;17.00;1.00;;;;;;4403900;28;657879;-67
2022/04/14 08:23:51;;;;;;;15.87;6.77;;;17.00;1.00;;;;;;4406187;28;659531;-67
2022/04/14 08:26:40;;;;;;;16.37;7.40;;;17.20;1.00;;;;;;4400415;28;658560;-67
2022/04/14 08:29:27;;;;;;;12.63;7.00;;;17.20;1.00;;;;;;4394236;28;658073;-67
2022/04/14 08:32:15;;;;;;;18.07;7.00;;;17.50;1.00;;;;;;4411775;28;657460;-67
2022/04/14 08:35:03;;;;;;;14.30;7.27;;;17.90;1.00;;;;;;4405880;28;659697;-67
2022/04/14 08:37:50;;;;;;;19.17;7.17;;;18.00;1.00;;;;;;4399675;28;659824;-67
2022/04/14 08:40:38;;;;;;;12.33;6.90;;;17.90;1.00;;;;;;4407713;28;658106;-67
2022/04/14 08:43:32;;;;;;;14.87;7.33;;;18.00;1.00;;;;;;4385828;28;657775;-67
2022/04/14 08:46:19;;;;;;;17.67;6.77;;;17.80;1.00;;;;;;4399654;28;659354;-67
2022/04/14 08:49:07;;;;;;;13.47;7.20;;;17.90;1.00;;;;;;4392071;28;658477;-67
2022/04/14 08:51:55;;;;;;;14.70;7.13;;;18.30;1.00;;;;;;4406419;28;658276;-67
2022/04/14 08:54:44;;;;;;;13.70;6.33;;;18.50;1.00;;;;;;4399861;28;660397;-67
2022/04/14 08:57:32;;;;;;;14.70;6.40;;;18.80;1.00;;;;;;4390684;28;657934;-67
2022/04/14 09:00:21;;;;;;;12.30;6.77;;;18.50;1.00;;;;;;4416086;28;657301;-67
2022/04/14 09:03:08;;;;;;;13.37;6.83;;;18.90;1.00;;;;;;4377152;28;657838;-68
2022/04/14 09:05:56;;;;;;;12.37;5.97;;;19.20;1.00;;;;;;4383176;28;658571;-67
2022/04/14 09:08:46;;;;;;;15.10;6.87;;;18.90;1.00;;;;;;4403770;28;659659;-67
2022/04/14 09:11:33;;;;;;;12.33;7.07;;;19.50;1.00;;;;;;4381980;28;657822;-67
2022/04/14 09:14:21;;;;;;;12.63;6.70;;;19.50;1.00;;;;;;4382678;28;657963;-68
2022/04/14 09:17:10;;;;;;;12.77;6.70;;;20.10;1.00;;;;;;4408948;28;658245;-67
2022/04/14 09:19:57;;;;;;;16.97;6.10;;;20.30;1.00;;;;;;4383084;28;658124;-67
2022/04/14 09:22:44;;;;;;;13.47;6.63;;;20.10;1.00;;;;;;4403388;28;657598;-68
2022/04/14 09:25:32;;;;;;;12.03;5.73;;;20.20;1.00;;;;;;4385070;28;657798;-68
2022/04/14 09:28:20;;;;;;;9.20;5.20;;;19.70;1.00;;;;;;4413179;28;657654;-67
2022/04/14 09:31:08;;;;;;;9.47;4.93;;;19.60;1.00;;;;;;4383404;28;658255;-67
2022/04/14 09:33:57;;;;;;;10.17;5.27;;;19.70;1.00;;;;;;4397891;28;656589;-67
2022/04/14 09:36:49;;;;;;;8.17;4.83;;;20.10;1.00;;;;;;4404806;28;657586;-68
2022/04/14 09:39:53;;;;;;;8.90;4.57;;;19.90;1.00;;;;;;4395188;28;656346;-67
2022/04/14 09:42:41;;;;;;;9.90;5.13;;;19.90;1.00;;;;;;4367596;28;656538;-68
2022/04/14 09:45:29;;;;;;;10.23;5.17;;;19.90;1.00;;;;;;4410708;28;656702;-67
2022/04/14 09:48:18;;;;;;;9.83;6.33;;;20.60;1.00;;;;;;4383970;28;658710;-67
2022/04/14 09:51:07;;;;;;;10.17;5.37;;;20.80;1.00;;;;;;4394830;28;656333;-68
2022/04/14 09:54:02;;;;;;;11.17;5.20;;;21.50;1.00;;;;;;4405809;28;657585;-68
2022/04/14 09:56:52;;;;;;;10.33;5.40;;;21.60;1.00;;;;;;4371359;28;657899;-68
2022/04/14 09:59:40;;;;;;;11.27;5.73;;;21.30;1.00;;;;;;4400345;28;657549;-68
2022/04/14 10:02:28;;;;;;;9.75;5.50;;;21.70;1.00;;;;;;4375283;28;658820;-68
2022/04/14 10:05:34;;;;;;;10.67;4.87;;;21.30;1.00;;;;;;4386440;28;656448;-68
2022/04/14 10:08:24;;;;;;;9.20;4.87;;;21.40;1.00;;;;;;4359980;28;658377;-68
2022/04/14 10:11:11;;;;;;;13.13;4.80;;;21.80;1.00;;;;;;4387638;28;656809;-68
2022/04/14 10:14:10;;;;;;;7.97;4.40;;;22.00;1.00;;;;;;4407169;28;658202;-68
2022/04/14 10:17:09;;;;;;;10.70;4.93;;;22.40;1.00;;;;;;4384892;28;656512;-68
2022/04/14 10:19:57;;;;;;;10.63;4.60;;;22.20;1.00;;;;;;4360238;28;658576;-68
2022/04/14 10:22:44;;;;;;;8.03;4.50;;;23.00;1.00;;;;;;4402618;28;658428;-68
2022/04/14 10:25:36;;;;;;;7.50;4.60;;;23.00;29.00;;;;;;4384484;28;656757;-68
2022/04/14 10:28:23;;;;;;;8.83;4.70;;;22.50;11.20;;;;;;4382545;28;658193;-68
2022/04/14 10:31:11;;;;;;;12.20;4.40;;;22.20;99.90;;;;;;4384103;28;657446;-68
2022/04/14 10:34:16;;;;;;;6.83;4.60;;;22.20;56.90;;;;;;4402187;28;659639;-68
2022/04/14 10:37:05;;;;;;;6.53;4.27;;;22.00;99.90;;;;;;4386168;28;658326;-68
2022/04/14 10:39:52;;;;;;;9.00;3.93;;;21.60;99.90;;;;;;4383171;28;659970;-68
2022/04/14 10:42:46;;;;;;;8.57;4.07;;;21.30;99.90;;;;;;4407879;28;657921;-68
2022/04/14 10:45:34;;;;;;;6.93;3.97;;;21.90;99.90;;;;;;4384242;28;658033;-67
2022/04/14 10:48:29;;;;;;;5.20;3.50;;;21.80;99.90;;;;;;4376081;28;657904;-68
2022/04/14 10:51:22;;;;;;;9.53;3.80;;;22.70;81.10;;;;;;4367064;28;658182;-68
2022/04/14 10:54:09;;;;;;;7.93;3.87;;;22.30;99.90;;;;;;4384156;28;658068;-67
2022/04/14 10:56:57;;;;;;;7.17;3.53;;;22.10;99.90;;;;;;4398802;28;657757;-67
2022/04/14 10:59:46;;;;;;;5.07;3.10;;;22.50;99.90;;;;;;4410208;28;658159;-68
2022/04/14 11:03:04;;;;;;;7.00;3.40;;;22.40;99.90;;;;;;4410212;28;658264;-68
2022/04/14 11:05:51;;;;;;;9.27;3.50;;;22.20;99.90;;;;;;4385251;28;657899;-68
2022/04/14 11:08:47;;;;;;;7.23;2.90;;;24.00;99.90;;;;;;4410157;28;657612;-68
2022/04/14 11:11:58;;;;;;;7.10;3.00;;;22.70;99.90;;;;;;4400560;28;657926;-68
2022/04/14 11:14:48;;;;;;;9.83;3.10;;;23.30;99.90;;;;;;4390002;28;658447;-68
2022/04/14 11:18:03;;;;;;;5.97;2.97;;;23.60;99.90;;;;;;4406441;28;657939;-68
2022/04/14 11:21:00;;;;;;;4.77;2.63;;;22.80;99.90;;;;;;4382834;28;657647;-68
2022/04/14 11:23:53;;;;;;;6.03;2.67;;;23.30;99.90;;;;;;4381856;28;658107;-68
2022/04/14 11:26:41;;;;;;;6.60;3.40;;;23.20;99.90;;;;;;4371731;28;658234;-68
2022/04/14 11:29:32;;;;;;;5.67;3.03;;;23.80;99.90;;;;;;4399195;28;658402;-68
2022/04/14 11:32:38;;;;;;;4.67;2.80;;;24.20;99.90;;;;;;4373209;28;658047;-68
2022/04/14 11:35:31;;;;;;;3.67;2.60;;;23.80;99.90;;;;;;4353233;28;657565;-68
2022/04/14 11:38:50;;;;;;;6.03;2.77;;;23.50;99.90;;;;;;4370537;28;657487;-68
2022/04/14 11:41:39;;;;;;;4.43;2.50;;;23.90;99.90;;;;;;4354722;28;658053;-68
2022/04/14 11:44:30;;;;;;;5.03;2.60;;;23.70;99.90;;;;;;4376852;28;657706;-68
2022/04/14 11:47:18;;;;;;;7.73;2.93;;;23.10;99.90;;;;;;4372413;28;658685;-68
2022/04/14 11:50:08;;;;;;;6.03;2.60;;;23.10;99.90;;;;;;4391064;28;657548;-68
2022/04/14 11:52:56;;;;;;;3.47;2.10;;;23.00;99.90;;;;;;4396100;28;657609;-68
2022/04/14 11:55:43;;;;;;;3.63;2.40;;;22.70;99.90;;;;;;4412574;28;659006;-67
2022/04/14 11:58:31;;;;;;;4.13;2.40;;;23.00;99.90;;;;;;4400223;28;658039;-68
2022/04/14 12:01:18;;;;;;;4.20;2.70;;;23.00;19.50;;;;;;4417226;28;657974;-68
2022/04/14 12:04:07;;;;;;;5.70;2.70;;;22.20;5.30;;;;;;4395031;28;657016;-68
2022/04/14 12:06:58;;;;;;;5.43;2.70;;;22.40;51.10;;;;;;4413119;28;656881;-68
2022/04/14 12:09:45;;;;;;;5.83;2.70;;;23.00;56.20;;;;;;4405535;28;657799;-68
2022/04/14 12:12:33;;;;;;;5.00;2.73;;;23.30;64.00;;;;;;4405045;28;659312;-69
2022/04/14 12:15:21;;;;;;;5.27;2.40;;;23.70;56.90;;;;;;4395090;28;657492;-68
2022/04/14 12:18:09;;;;;;;3.63;1.97;;;23.20;19.20;;;;;;4419311;28;658450;-68
2022/04/14 12:20:56;;;;;;;6.47;3.50;;;22.80;40.60;;;;;;4394534;28;657954;-68
2022/04/14 12:23:48;;;;;;;3.90;2.30;;;22.70;99.90;;;;;;4412520;28;657951;-67
2022/04/14 12:26:37;;;;;;;3.50;2.60;;;22.60;99.90;;;;;;4379907;28;658490;-68
2022/04/14 12:29:25;;;;;;;4.77;2.60;;;22.10;99.90;;;;;;4413312;28;657542;-68
2022/04/14 12:32:15;;;;;;;6.03;2.80;;;23.00;92.20;;;;;;4412865;28;660131;-68
2022/04/14 12:35:06;;;;;;;7.32;3.03;;;23.00;99.90;;;;;;4380201;28;659558;-68
2022/04/14 12:37:56;;;;;;;4.73;3.03;;;23.20;99.90;;;;;;4386890;28;657836;-68
2022/04/14 12:41:00;;;;;;;6.03;3.10;;;23.60;99.90;;;;;;4393075;28;658481;-69
2022/04/14 12:43:49;;;;;;;10.33;3.37;;;23.00;91.60;;;;;;4367077;28;658948;-68
2022/04/14 12:46:37;;;;;;;8.00;3.50;;;23.60;85.90;;;;;;4400047;28;658771;-68
2022/04/14 12:49:31;;;;;;;5.97;3.37;;;22.50;99.90;;;;;;4420178;28;657753;-67
2022/04/14 12:52:19;;;;;;;8.27;3.93;;;22.40;99.30;;;;;;4394297;28;657861;-68
2022/04/14 12:55:07;;;;;;;6.20;4.10;;;23.30;99.90;;;;;;4401501;28;657696;-68
2022/04/14 12:58:10;;;;;;;8.60;3.97;;;23.60;77.00;;;;;;4418210;28;657574;-68
2022/04/14 13:01:06;;;;;;;8.20;3.70;;;24.20;99.90;;;;;;4364523;28;658479;-69
2022/04/14 13:03:54;;;;;;;6.70;4.07;;;23.80;99.90;;;;;;4400265;28;657947;-68
2022/04/14 13:06:41;;;;;;;9.13;3.60;;;25.20;1.00;;;;;;4395933;28;657917;-68
2022/04/14 13:09:28;;;;;;;7.40;3.40;;;22.90;1.00;;;;;;4418158;28;658357;-68
2022/04/14 13:12:29;;;;;;;8.50;3.60;;;22.40;13.90;;;;;;4399913;28;656876;-68
2022/04/14 13:15:19;;;;;;;8.70;3.90;;;23.20;1.00;;;;;;4368557;28;657363;-68
2022/04/14 13:18:06;;;;;;;6.27;3.87;;;22.70;1.00;;;;;;4401015;28;656540;-68
2022/04/14 13:20:54;;;;;;;8.40;3.80;;;23.10;99.10;;;;;;4419783;28;657329;-68
2022/04/14 13:23:42;;;;;;;11.17;3.70;;;23.60;1.00;;;;;;4398348;28;657668;-68
2022/04/14 13:26:29;;;;;;;8.43;3.50;;;23.20;1.00;;;;;;4411198;28;658516;-68
2022/04/14 13:29:17;;;;;;;8.53;3.80;;;23.20;54.80;;;;;;4401113;28;657100;-68
2022/04/14 13:32:06;;;;;;;11.93;3.67;;;23.10;27.60;;;;;;4414490;28;658288;-68
2022/04/14 13:34:54;;;;;;;8.20;3.83;;;22.50;28.00;;;;;;4392729;28;659315;-67
2022/04/14 13:37:42;;;;;;;7.47;4.00;;;23.40;1.00;;;;;;4397502;28;657650;-67
2022/04/14 13:40:29;;;;;;;8.87;4.07;;;23.90;1.00;;;;;;4419903;28;657604;-67
2022/04/14 13:43:17;;;;;;;5.97;3.60;;;23.80;1.00;;;;;;4386939;28;656277;-67
2022/04/14 13:49:48;;;;;;;7.60;4.07;;;23.60;53.70;;;;;;4384901;28;657071;-67
2022/04/14 13:52:35;;;;;;;6.87;3.73;;;24.00;99.90;;;;;;4409658;28;660139;-67
2022/04/14 13:55:23;;;;;;;11.77;4.07;;;23.40;1.00;;;;;;4429788;28;659667;-67
2022/04/14 13:58:11;;;;;;;6.83;3.80;;;23.60;1.00;;;;;;4403213;28;657918;-66
2022/04/14 14:00:58;;;;;;;5.00;3.40;;;23.70;1.00;;;;;;4421905;28;658222;-67
2022/04/14 14:03:46;;;;;;;7.23;3.70;;;24.00;1.00;;;;;;4396664;28;656527;-66
2022/04/14 14:06:34;;;;;;;9.10;3.97;;;23.20;1.00;;;;;;4418551;28;657086;-66
2022/04/14 14:09:22;;;;;;;7.00;4.13;;;23.30;1.00;;;;;;4381936;28;657433;-67
2022/04/14 14:12:10;;;;;;;6.80;3.53;;;22.80;91.00;;;;;;4398628;28;657057;-67
2022/04/14 14:14:58;;;;;;;7.10;3.73;;;23.40;1.00;;;;;;4387645;28;659043;-67
2022/04/14 14:17:45;;;;;;;9.57;3.53;;;24.30;11.90;;;;;;4379898;28;657119;-67
2022/04/14 14:20:34;;;;;;;10.30;3.50;;;23.60;22.20;;;;;;4416120;28;659504;-67
2022/04/14 14:23:22;;;;;;;8.30;3.80;;;24.20;44.90;;;;;;4394196;28;658935;-67
2022/04/14 14:26:13;;;;;;;8.70;3.80;;;23.60;6.30;;;;;;4408575;28;657521;-67
2022/04/14 14:29:00;;;;;;;7.40;3.70;;;23.00;1.00;;;;;;4384056;28;656679;-67
2022/04/14 14:31:48;;;;;;;7.67;3.70;;;23.20;1.00;;;;;;4403451;28;657413;-67
2022/04/14 14:34:35;;;;;;;10.23;3.63;;;23.90;1.00;;;;;;4389391;28;656927;-67
2022/04/14 14:37:23;;;;;;;8.10;3.93;;;24.20;1.00;;;;;;4406856;28;658925;-67
2022/04/14 14:40:13;;;;;;;7.80;4.30;;;23.80;1.00;;;;;;4403102;28;656823;-67
2022/04/14 14:43:01;;;;;;;6.40;4.07;;;23.20;1.00;;;;;;4405145;28;656527;-67